Time;durP1;ratioP1;P1;durP2;ratioP2;P2;SDS_P1;SDS_P2;PMS_P1;PMS_P2;Temp;Humidity;BMP_temperature;BMP_pressure;BME280_temperature;BME280_humidity;BME280_pressure;Samples;Min_cycle;Max_cycle;Signal;HPM_P1;HPM_P2
2021/11/22 00:00:23;;;;;;;13.02;3.85;;;5.00;97.70;;;;;;5070842;28;20097;-77
2021/11/22 00:02:50;;;;;;;20.63;4.05;;;5.00;97.80;;;;;;5066174;28;20054;-77
2021/11/22 00:05:16;;;;;;;18.50;3.78;;;4.90;97.80;;;;;;5066128;28;20033;-77
2021/11/22 00:07:42;;;;;;;17.38;3.42;;;4.90;97.90;;;;;;5049506;28;20025;-77
2021/11/22 00:10:08;;;;;;;12.18;3.47;;;5.00;98.00;;;;;;5047364;28;20526;-77
2021/11/22 00:12:34;;;;;;;10.98;3.50;;;5.00;98.00;;;;;;5065623;28;20024;-76
2021/11/22 00:15:03;;;;;;;12.30;3.60;;;5.00;98.00;;;;;;5069467;28;20024;-77
2021/11/22 00:17:29;;;;;;;;;;;5.00;98.00;;;;;;5069354;28;20465;-77
2021/11/22 00:19:55;;;;;;;11.57;3.20;;;5.00;98.00;;;;;;5070407;28;20701;-77
2021/11/22 00:22:20;;;;;;;15.57;4.20;;;4.90;98.00;;;;;;5070570;28;20082;-77
2021/11/22 00:24:46;;;;;;;16.73;3.08;;;4.90;98.00;;;;;;5070976;28;20428;-77
2021/11/22 00:27:12;;;;;;;14.60;3.40;;;4.90;98.00;;;;;;5067810;28;20372;-77
2021/11/22 00:29:37;;;;;;;17.88;3.38;;;4.90;98.00;;;;;;5042492;28;20025;-77
2021/11/22 00:32:05;;;;;;;20.27;3.22;;;5.00;98.10;;;;;;5052843;28;20025;-76
2021/11/22 00:34:31;;;;;;;17.52;3.33;;;4.90;98.10;;;;;;5072189;28;20037;-76
2021/11/22 00:36:57;;;;;;;9.15;2.88;;;4.90;98.40;;;;;;5051225;28;20117;-77
2021/11/22 00:39:23;;;;;;;16.75;3.33;;;4.90;98.10;;;;;;5051058;28;20115;-77
2021/11/22 00:41:48;;;;;;;12.40;3.30;;;4.90;98.10;;;;;;5049298;28;20064;-77
2021/11/22 00:44:15;;;;;;;16.15;3.13;;;4.90;98.10;;;;;;5067880;28;20485;-77
2021/11/22 00:46:40;;;;;;;9.68;2.60;;;4.90;98.20;;;;;;5066656;28;20396;-77
2021/11/22 00:49:06;;;;;;;13.90;3.40;;;4.90;98.10;;;;;;5071103;28;20028;-77
2021/11/22 00:51:33;;;;;;;13.65;3.20;;;4.90;98.20;;;;;;5056996;28;20039;-77
2021/11/22 00:53:58;;;;;;;10.52;2.83;;;4.90;98.10;;;;;;5071780;28;20388;-77
2021/11/22 00:56:24;;;;;;;13.90;3.28;;;4.80;98.20;;;;;;5069422;28;20048;-77
2021/11/22 00:58:50;;;;;;;8.70;2.70;;;4.80;98.20;;;;;;5071209;28;20488;-77
2021/11/22 01:01:16;;;;;;;12.73;2.95;;;4.90;98.30;;;;;;5069161;28;20029;-77
2021/11/22 01:03:41;;;;;;;11.48;2.88;;;4.80;98.30;;;;;;5069660;28;20085;-77
2021/11/22 01:06:07;;;;;;;10.73;2.70;;;4.80;98.30;;;;;;5067656;28;20056;-76
2021/11/22 01:08:33;;;;;;;10.85;2.50;;;4.70;98.30;;;;;;5068461;28;20021;-77
2021/11/22 01:10:59;;;;;;;15.32;3.28;;;4.80;98.40;;;;;;5070019;28;20359;-76
2021/11/22 01:13:25;;;;;;;15.18;2.47;;;4.80;98.40;;;;;;5051640;28;20036;-77
2021/11/22 01:15:50;;;;;;;11.02;2.40;;;4.80;98.50;;;;;;5069175;28;20028;-77
2021/11/22 01:18:16;;;;;;;11.60;2.67;;;4.80;98.40;;;;;;5068162;28;20103;-77
2021/11/22 01:20:42;;;;;;;8.73;2.65;;;4.80;98.40;;;;;;5069412;28;20032;-77
2021/11/22 01:23:10;;;;;;;15.98;2.80;;;4.80;98.50;;;;;;5070509;28;20036;-77
2021/11/22 01:25:38;;;;;;;11.45;2.60;;;4.80;98.50;;;;;;5069851;28;20029;-77
2021/11/22 01:28:05;;;;;;;11.50;2.28;;;4.70;98.50;;;;;;5070249;28;20033;-77
2021/11/22 01:30:30;;;;;;;10.35;2.80;;;4.70;98.60;;;;;;5070243;28;20044;-76
2021/11/22 01:32:56;;;;;;;14.43;2.60;;;4.70;98.60;;;;;;5067326;28;20067;-77
2021/11/22 01:35:23;;;;;;;11.70;2.83;;;4.70;98.60;;;;;;5067705;28;20088;-77
2021/11/22 01:37:49;;;;;;;9.23;2.38;;;4.70;98.60;;;;;;5050118;28;20078;-77
2021/11/22 01:40:17;;;;;;;14.27;2.67;;;4.70;98.70;;;;;;5070654;28;20467;-77
2021/11/22 01:42:43;;;;;;;12.37;2.40;;;4.70;98.70;;;;;;5069784;28;20028;-77
2021/11/22 01:45:12;;;;;;;14.93;2.85;;;4.70;98.70;;;;;;5069939;28;20343;-77
2021/11/22 01:47:38;;;;;;;8.73;2.95;;;4.70;98.70;;;;;;5071184;28;20130;-77
2021/11/22 01:50:05;;;;;;;10.60;3.00;;;4.70;98.80;;;;;;5069586;28;20072;-77
2021/11/22 01:52:31;;;;;;;11.45;2.65;;;4.70;98.80;;;;;;5068578;28;20028;-77
2021/11/22 01:54:57;;;;;;;11.02;2.75;;;4.70;98.90;;;;;;5069771;28;20037;-77
2021/11/22 01:57:22;;;;;;;9.45;3.50;;;4.70;98.80;;;;;;5052959;28;20032;-76
2021/11/22 01:59:48;;;;;;;10.45;3.97;;;4.70;98.80;;;;;;5053213;28;20029;-77
2021/11/22 02:02:14;;;;;;;11.18;3.40;;;4.70;98.80;;;;;;5052242;28;20032;-76
2021/11/22 02:04:40;;;;;;;9.00;3.65;;;4.70;98.90;;;;;;5052500;28;20047;-77
2021/11/22 02:07:06;;;;;;;9.25;4.00;;;4.70;98.90;;;;;;5032661;28;20040;-77
2021/11/22 02:09:32;;;;;;;10.07;3.63;;;4.70;98.90;;;;;;5037154;28;20043;-77
2021/11/22 02:11:59;;;;;;;11.07;3.35;;;4.70;98.90;;;;;;5054931;28;20096;-77
2021/11/22 02:14:24;;;;;;;11.02;3.47;;;4.70;98.90;;;;;;5054125;28;20029;-77
2021/11/22 02:16:50;;;;;;;12.02;3.72;;;4.80;98.90;;;;;;5038971;28;20055;-77
2021/11/22 02:19:16;;;;;;;9.32;3.60;;;4.70;98.90;;;;;;5073057;28;20037;-77
2021/11/22 02:21:43;;;;;;;13.70;3.70;;;4.70;98.90;;;;;;5053985;28;20086;-77
2021/11/22 02:24:09;;;;;;;12.85;3.80;;;4.70;98.90;;;;;;5054312;28;20039;-77
2021/11/22 02:26:36;;;;;;;8.63;3.90;;;4.70;99.00;;;;;;5034249;28;20037;-77
2021/11/22 02:29:02;;;;;;;13.00;4.35;;;4.80;99.00;;;;;;5054911;28;20032;-77
2021/11/22 02:31:28;;;;;;;14.63;3.75;;;4.80;99.10;;;;;;5054771;28;20061;-77
2021/11/22 02:33:54;;;;;;;10.60;3.83;;;4.80;99.00;;;;;;5073445;28;20388;-76
2021/11/22 02:36:20;;;;;;;11.18;3.47;;;4.90;99.30;;;;;;5034440;28;20037;-77
2021/11/22 02:38:46;;;;;;;13.40;4.30;;;4.90;99.10;;;;;;5050346;28;20048;-77
2021/11/22 02:41:15;;;;;;;11.25;3.60;;;5.00;99.10;;;;;;5053557;28;20040;-76
2021/11/22 02:43:41;;;;;;;14.73;4.60;;;5.00;99.40;;;;;;5071135;28;20024;-76
2021/11/22 02:46:07;;;;;;;12.05;4.32;;;5.00;99.10;;;;;;5037039;28;20379;-77
2021/11/22 02:48:33;;;;;;;16.63;4.85;;;5.00;99.50;;;;;;5073055;28;20112;-77
2021/11/22 02:51:00;;;;;;;12.98;4.68;;;5.00;99.20;;;;;;5054416;28;20030;-76
2021/11/22 02:53:26;;;;;;;14.65;5.03;;;5.00;99.30;;;;;;5053181;28;20047;-77
2021/11/22 02:55:59;;;;;;;10.05;4.70;;;5.00;99.30;;;;;;5069173;28;20044;-76
2021/11/22 02:58:25;;;;;;;10.63;5.03;;;5.10;99.30;;;;;;5069053;28;20028;-76
2021/11/22 03:00:52;;;;;;;11.77;5.32;;;5.10;99.30;;;;;;5049649;28;20036;-76
2021/11/22 03:03:17;;;;;;;8.88;5.10;;;5.10;99.40;;;;;;5048765;28;20025;-76
2021/11/22 03:05:43;;;;;;;12.52;5.05;;;5.20;99.40;;;;;;5049302;28;20037;-76
2021/11/22 03:08:09;;;;;;;14.43;5.40;;;5.20;99.30;;;;;;5033350;28;20040;-76
2021/11/22 03:10:34;;;;;;;9.82;5.47;;;5.20;99.30;;;;;;5049327;28;20035;-76
2021/11/22 03:13:00;;;;;;;9.48;5.68;;;5.30;99.30;;;;;;5049455;28;20473;-76
2021/11/22 03:15:27;;;;;;;10.00;6.03;;;5.20;99.30;;;;;;5032810;28;20032;-76
2021/11/22 03:17:53;;;;;;;11.63;6.80;;;5.30;99.30;;;;;;5067684;28;20029;-76
2021/11/22 03:20:20;;;;;;;15.63;7.07;;;5.30;99.30;;;;;;5066821;28;20025;-76
2021/11/22 03:22:47;;;;;;;13.48;6.60;;;5.30;99.30;;;;;;5047940;28;20335;-77
2021/11/22 03:25:15;;;;;;;15.15;7.30;;;5.30;99.30;;;;;;5065837;28;20408;-76
2021/11/22 03:27:42;;;;;;;13.85;7.68;;;5.40;99.30;;;;;;5066104;28;20060;-77
2021/11/22 03:30:09;;;;;;;11.65;8.00;;;5.40;99.30;;;;;;5066827;28;20163;-76
2021/11/22 03:32:35;;;;;;;12.95;8.70;;;5.40;99.30;;;;;;5065662;28;20028;-76
2021/11/22 03:35:02;;;;;;;16.40;8.57;;;5.40;99.30;;;;;;5048238;28;20050;-76
2021/11/22 03:37:28;;;;;;;16.80;8.80;;;5.50;99.30;;;;;;5068134;28;20059;-76
2021/11/22 03:39:54;;;;;;;13.15;8.02;;;5.50;99.30;;;;;;5065460;28;20568;-76
2021/11/22 03:42:22;;;;;;;13.32;7.65;;;5.50;99.30;;;;;;5065605;28;20917;-77
2021/11/22 03:44:48;;;;;;;17.38;7.70;;;5.50;99.30;;;;;;5048797;28;20055;-77
2021/11/22 03:47:14;;;;;;;13.88;7.35;;;5.60;99.30;;;;;;5068618;28;20064;-76
2021/11/22 03:49:40;;;;;;;13.15;6.60;;;5.50;99.40;;;;;;5068253;28;20500;-76
2021/11/22 03:52:06;;;;;;;9.45;6.95;;;5.50;99.20;;;;;;5050260;28;20588;-76
2021/11/22 03:54:33;;;;;;;10.20;6.55;;;5.50;99.10;;;;;;5048597;28;20288;-76
2021/11/22 03:56:58;;;;;;;12.75;7.07;;;5.60;99.10;;;;;;5067603;28;20577;-76
2021/11/22 03:59:24;;;;;;;10.10;6.88;;;5.50;99.00;;;;;;5049671;28;20132;-76
2021/11/22 04:01:50;;;;;;;11.20;7.70;;;5.50;98.90;;;;;;5033098;28;20029;-76
2021/11/22 04:04:15;;;;;;;9.98;7.10;;;5.60;98.90;;;;;;5049876;28;20709;-77
2021/11/22 04:06:41;;;;;;;12.48;7.30;;;5.60;98.90;;;;;;5049551;28;20048;-77
2021/11/22 04:09:07;;;;;;;10.85;7.28;;;5.50;98.80;;;;;;5007755;28;20421;-76
2021/11/22 04:11:35;;;;;;;12.52;7.47;;;5.60;98.90;;;;;;5032369;28;20112;-76
2021/11/22 04:14:01;;;;;;;14.80;6.57;;;5.60;98.90;;;;;;5050956;28;20516;-76
2021/11/22 04:16:27;;;;;;;10.85;7.22;;;5.60;98.90;;;;;;5070724;28;20111;-77
2021/11/22 04:18:53;;;;;;;12.23;7.65;;;5.60;98.80;;;;;;5036465;28;20115;-76
2021/11/22 04:21:23;;;;;;;11.63;7.78;;;5.60;98.80;;;;;;5068966;28;20089;-76
2021/11/22 04:23:49;;;;;;;13.95;7.35;;;5.60;98.80;;;;;;5067335;28;20115;-77
2021/11/22 04:26:17;;;;;;;11.32;6.90;;;5.60;98.80;;;;;;5034675;28;20532;-77
2021/11/22 04:28:44;;;;;;;9.73;6.80;;;5.60;98.80;;;;;;5052877;28;20031;-77
2021/11/22 04:31:09;;;;;;;13.27;7.32;;;5.60;98.80;;;;;;5053112;28;20021;-77
2021/11/22 04:33:36;;;;;;;10.32;6.72;;;5.60;98.80;;;;;;5071309;28;20462;-77
2021/11/22 04:36:02;;;;;;;8.90;6.20;;;5.60;98.70;;;;;;5053594;28;20158;-76
2021/11/22 04:38:28;;;;;;;8.10;6.18;;;5.60;98.70;;;;;;5052735;28;20024;-76
2021/11/22 04:40:54;;;;;;;9.07;5.90;;;5.70;98.80;;;;;;5072031;28;20039;-77
2021/11/22 04:43:19;;;;;;;9.30;5.47;;;5.70;98.80;;;;;;5054846;28;20036;-77
2021/11/22 04:45:45;;;;;;;10.85;6.60;;;5.70;98.80;;;;;;5054108;28;20040;-77
2021/11/22 04:48:11;;;;;;;11.63;6.15;;;5.70;98.70;;;;;;5019448;28;20028;-77
2021/11/22 04:50:37;;;;;;;12.10;6.05;;;5.70;98.70;;;;;;5070555;28;20028;-76
2021/11/22 04:53:04;;;;;;;10.52;5.25;;;5.70;98.70;;;;;;5071132;28;20503;-77
2021/11/22 04:55:30;;;;;;;10.18;5.07;;;5.70;98.60;;;;;;5065433;28;20588;-77
2021/11/22 04:57:57;;;;;;;12.45;5.75;;;5.60;98.60;;;;;;5070673;28;20020;-77
2021/11/22 05:00:24;;;;;;;12.23;5.70;;;5.60;98.60;;;;;;5052397;28;20159;-76
2021/11/22 05:02:50;;;;;;;10.90;5.90;;;5.60;98.60;;;;;;5069531;28;20031;-77
2021/11/22 05:05:18;;;;;;;8.73;6.10;;;5.60;98.60;;;;;;5068576;28;20154;-77
2021/11/22 05:07:45;;;;;;;12.77;5.70;;;5.60;98.60;;;;;;5070603;28;20025;-77
2021/11/22 05:10:12;;;;;;;11.18;6.88;;;5.60;98.60;;;;;;5070330;28;20016;-76
2021/11/22 05:12:38;;;;;;;11.88;6.05;;;5.60;98.60;;;;;;5069025;28;20043;-76
2021/11/22 05:15:06;;;;;;;10.15;5.68;;;5.60;98.60;;;;;;5068079;28;20400;-77
2021/11/22 05:17:33;;;;;;;16.25;5.80;;;5.60;98.60;;;;;;5070315;28;20038;-77
2021/11/22 05:19:59;;;;;;;9.52;5.97;;;5.60;98.60;;;;;;5071004;28;20024;-76
2021/11/22 05:22:25;;;;;;;10.43;6.10;;;5.60;98.60;;;;;;5072029;28;20128;-76
2021/11/22 05:24:51;;;;;;;8.27;5.72;;;5.60;98.60;;;;;;5049865;28;20032;-76
2021/11/22 05:27:22;;;;;;;13.38;5.88;;;5.60;98.60;;;;;;5051166;28;20032;-77
2021/11/22 05:29:49;;;;;;;12.18;6.35;;;5.60;98.60;;;;;;5057344;28;20717;-77
2021/11/22 05:32:17;;;;;;;12.32;6.10;;;5.60;98.50;;;;;;5050308;28;20127;-76
2021/11/22 05:34:44;;;;;;;10.48;7.15;;;5.60;98.50;;;;;;5050674;28;20034;-77
2021/11/22 05:37:10;;;;;;;9.75;6.55;;;5.60;98.50;;;;;;5065067;28;20044;-77
2021/11/22 05:39:36;;;;;;;11.93;6.70;;;5.60;98.50;;;;;;5052519;28;20070;-77
2021/11/22 05:42:02;;;;;;;9.73;6.72;;;5.50;98.50;;;;;;5050673;28;20032;-77
2021/11/22 05:44:28;;;;;;;10.40;6.35;;;5.60;98.40;;;;;;5069974;28;20503;-77
2021/11/22 05:46:53;;;;;;;10.05;6.35;;;5.50;98.40;;;;;;5070939;28;20055;-77
2021/11/22 05:49:20;;;;;;;9.90;6.50;;;5.50;98.40;;;;;;5072433;28;20493;-77
2021/11/22 05:51:46;;;;;;;13.13;6.57;;;5.60;98.50;;;;;;5054421;28;20074;-77
2021/11/22 05:54:13;;;;;;;7.72;6.07;;;5.60;98.50;;;;;;5054883;28;20036;-77
2021/11/22 05:56:39;;;;;;;12.30;6.70;;;5.60;98.40;;;;;;5064027;28;20064;-76
2021/11/22 05:59:05;;;;;;;13.50;6.65;;;5.60;98.30;;;;;;5072893;28;20056;-77
2021/11/22 06:01:31;;;;;;;9.95;6.68;;;5.60;98.30;;;;;;5047039;28;20033;-76
2021/11/22 06:03:56;;;;;;;7.57;6.25;;;5.50;98.20;;;;;;5048203;28;20111;-76
2021/11/22 06:06:22;;;;;;;11.85;6.68;;;5.50;98.10;;;;;;5069866;28;20036;-76
2021/11/22 06:08:48;;;;;;;11.98;6.40;;;5.50;98.20;;;;;;5071687;28;20431;-76
2021/11/22 06:11:14;;;;;;;9.35;6.32;;;5.50;98.20;;;;;;5071311;28;20488;-76
2021/11/22 06:13:40;;;;;;;8.32;6.53;;;5.50;98.20;;;;;;5073832;28;20016;-77
2021/11/22 06:16:06;;;;;;;11.05;6.93;;;5.50;98.20;;;;;;5073231;28;20106;-77
2021/11/22 06:18:31;;;;;;;12.00;7.10;;;5.50;98.30;;;;;;5068811;28;20506;-82
2021/11/22 06:20:57;;;;;;;9.95;6.70;;;5.50;98.20;;;;;;5060406;28;20029;-82
2021/11/22 06:23:23;;;;;;;13.30;7.25;;;5.40;98.20;;;;;;5072097;28;20040;-82
2021/11/22 06:25:48;;;;;;;12.20;7.70;;;5.50;98.20;;;;;;5055144;28;20401;-81
2021/11/22 06:28:14;;;;;;;13.63;7.90;;;5.40;98.10;;;;;;5073278;28;20106;-81
2021/11/22 06:30:40;;;;;;;10.88;7.68;;;5.40;98.10;;;;;;5073528;28;20063;-79
2021/11/22 06:33:06;;;;;;;11.05;7.90;;;5.40;98.10;;;;;;5073017;28;20064;-79
2021/11/22 06:35:33;;;;;;;16.00;8.00;;;5.40;98.10;;;;;;5064525;28;20537;-79
2021/11/22 06:38:01;;;;;;;15.65;8.23;;;5.30;98.10;;;;;;5071126;28;20024;-79
2021/11/22 06:40:26;;;;;;;13.18;8.23;;;5.30;98.10;;;;;;5055648;28;20029;-79
2021/11/22 06:42:52;;;;;;;11.57;8.23;;;5.30;98.00;;;;;;5073597;28;20392;-80
2021/11/22 06:45:18;;;;;;;17.00;8.75;;;5.20;98.00;;;;;;5060697;28;20054;-79
2021/11/22 06:47:44;;;;;;;12.85;7.78;;;5.30;98.10;;;;;;5056981;28;20503;-77
2021/11/22 06:50:10;;;;;;;10.55;7.75;;;5.20;98.20;;;;;;5074497;28;20052;-77
2021/11/22 06:52:36;;;;;;;14.05;6.68;;;5.30;98.20;;;;;;5073121;28;20392;-77
2021/11/22 06:55:04;;;;;;;11.95;6.97;;;5.30;98.30;;;;;;5072821;28;20391;-78
2021/11/22 06:57:30;;;;;;;10.48;6.28;;;5.30;98.30;;;;;;5035835;28;20029;-78
2021/11/22 06:59:56;;;;;;;13.63;6.00;;;5.20;98.50;;;;;;5049597;28;20027;-78
2021/11/22 07:02:24;;;;;;;11.60;5.45;;;5.20;98.20;;;;;;5053947;28;20028;-78
2021/11/22 07:04:50;;;;;;;13.93;5.68;;;5.20;98.30;;;;;;5048526;28;20473;-78
2021/11/22 07:07:16;;;;;;;14.23;5.00;;;5.20;98.30;;;;;;5040048;28;20036;-78
2021/11/22 07:09:43;;;;;;;11.50;4.93;;;5.10;98.30;;;;;;5056258;28;20381;-76
2021/11/22 07:12:09;;;;;;;11.70;5.05;;;5.10;98.30;;;;;;5056395;28;20036;-78
2021/11/22 07:14:38;;;;;;;19.13;5.63;;;5.00;98.30;;;;;;5073138;28;20033;-78
2021/11/22 07:17:04;;;;;;;;;;;4.90;98.30;;;;;;5057064;28;20029;-78
2021/11/22 07:19:31;;;;;;;7.78;4.10;;;4.90;98.30;;;;;;5056183;28;19905;-77
2021/11/22 07:22:00;;;;;;;10.80;4.47;;;4.80;98.30;;;;;;5007156;28;20029;-78
2021/11/22 07:24:26;;;;;;;;;;;4.70;98.30;;;;;;5037238;28;20083;-78
2021/11/22 07:26:52;;;;;;;6.15;4.35;;;4.70;98.30;;;;;;5049605;28;19908;-77
2021/11/22 07:29:17;;;;;;;8.07;4.10;;;4.70;98.40;;;;;;5048819;28;20535;-78
2021/11/22 07:31:44;;;;;;;10.02;4.95;;;4.60;98.40;;;;;;5055896;28;20021;-78
2021/11/22 07:34:09;;;;;;;10.93;4.00;;;4.60;98.70;;;;;;5057869;28;20025;-78
2021/11/22 07:36:35;;;;;;;7.80;4.20;;;4.60;98.50;;;;;;5044554;28;20032;-78
2021/11/22 07:39:01;;;;;;;8.07;4.93;;;4.60;98.50;;;;;;5039430;28;20043;-77
2021/11/22 07:41:26;;;;;;;7.88;4.47;;;4.60;98.40;;;;;;5056361;28;20043;-78
2021/11/22 07:43:52;;;;;;;9.35;4.38;;;4.60;98.70;;;;;;5056359;28;20119;-78
2021/11/22 07:46:18;;;;;;;11.98;4.97;;;4.60;98.40;;;;;;5055308;28;20044;-78
2021/11/22 07:48:44;;;;;;;7.47;4.97;;;4.60;98.40;;;;;;5036035;28;20029;-78
2021/11/22 07:51:10;;;;;;;10.10;5.07;;;4.60;98.40;;;;;;5025610;28;20099;-78
2021/11/22 07:53:36;;;;;;;8.43;4.43;;;4.60;98.40;;;;;;5073625;28;20078;-78
2021/11/22 07:56:03;;;;;;;12.40;4.60;;;4.60;98.40;;;;;;5044477;28;20045;-78
2021/11/22 07:58:28;;;;;;;12.30;4.45;;;4.60;98.40;;;;;;5036153;28;20033;-77
2021/11/22 08:00:54;;;;;;;11.82;4.35;;;4.60;98.40;;;;;;5052951;28;20086;-81
2021/11/22 08:03:20;;;;;;;12.65;4.40;;;4.70;98.40;;;;;;5051729;28;20029;-81
2021/11/22 08:05:49;;;;;;;8.20;4.72;;;4.70;98.30;;;;;;5049739;28;20039;-81
2021/11/22 08:08:16;;;;;;;;;;;4.70;98.30;;;;;;5053286;28;20049;-81
2021/11/22 08:10:46;;;;;;;7.35;4.38;;;4.70;98.20;;;;;;5072317;28;20344;-81
2021/11/22 08:13:12;;;;;;;9.88;4.07;;;4.60;98.20;;;;;;5072259;28;20017;-77
2021/11/22 08:15:38;;;;;;;9.52;3.92;;;4.70;98.30;;;;;;5055409;28;20485;-77
2021/11/22 08:18:07;;;;;;;13.18;4.30;;;4.70;98.20;;;;;;5055720;28;20031;-77
2021/11/22 08:20:33;;;;;;;9.23;3.95;;;4.70;98.20;;;;;;5073409;28;20017;-76
2021/11/22 08:22:59;;;;;;;10.07;4.60;;;4.80;98.10;;;;;;5072865;28;20039;-77
2021/11/22 08:25:26;;;;;;;8.13;4.10;;;4.80;98.00;;;;;;5054560;28;20029;-76
2021/11/22 08:27:54;;;;;;;12.30;4.15;;;4.80;97.90;;;;;;5052272;28;20076;-77
2021/11/22 08:30:22;;;;;;;8.68;4.05;;;4.80;97.90;;;;;;5071382;28;20109;-77
2021/11/22 08:32:50;;;;;;;10.65;3.97;;;4.80;97.90;;;;;;5073162;28;20020;-77
2021/11/22 08:35:18;;;;;;;12.27;3.85;;;4.80;97.90;;;;;;5072556;28;20052;-77
2021/11/22 08:37:44;;;;;;;9.75;3.60;;;4.80;97.70;;;;;;5071841;28;20418;-77
2021/11/22 08:40:13;;;;;;;7.57;3.60;;;4.80;97.70;;;;;;5073082;28;20477;-77
2021/11/22 08:42:39;;;;;;;9.57;3.70;;;4.90;97.80;;;;;;5072773;28;20027;-77
2021/11/22 08:45:06;;;;;;;10.30;3.20;;;4.90;97.70;;;;;;5070881;28;20036;-78
2021/11/22 08:47:32;;;;;;;7.15;3.28;;;4.90;97.60;;;;;;5071075;28;20036;-77
2021/11/22 08:49:58;;;;;;;12.00;3.47;;;5.00;97.70;;;;;;5069294;28;20495;-77
2021/11/22 08:52:24;;;;;;;6.95;3.38;;;5.00;97.60;;;;;;5071522;28;20374;-77
2021/11/22 08:54:50;;;;;;;5.30;3.17;;;5.00;97.40;;;;;;5072032;28;20032;-77
2021/11/22 08:57:17;;;;;;;8.25;2.88;;;5.00;97.50;;;;;;5072465;28;20017;-77
2021/11/22 08:59:43;;;;;;;5.43;2.70;;;5.10;97.50;;;;;;5054677;28;20060;-77
2021/11/22 09:02:10;;;;;;;6.18;2.80;;;5.10;97.40;;;;;;5034324;28;20512;-77
2021/11/22 09:04:36;;;;;;;6.85;2.67;;;5.10;97.40;;;;;;5035168;28;20723;-77
2021/11/22 09:07:02;;;;;;;7.10;2.97;;;5.10;97.40;;;;;;5051341;28;20066;-77
2021/11/22 09:09:28;;;;;;;5.18;2.65;;;5.20;97.40;;;;;;5034929;28;20036;-77
2021/11/22 09:11:54;;;;;;;6.28;2.50;;;5.20;97.30;;;;;;5052622;28;20025;-77
2021/11/22 09:14:19;;;;;;;4.80;2.20;;;5.30;97.30;;;;;;5050523;28;20031;-77
2021/11/22 09:16:45;;;;;;;7.72;2.65;;;5.30;97.10;;;;;;5042273;28;20037;-77
2021/11/22 09:19:12;;;;;;;7.05;2.63;;;5.30;97.10;;;;;;5068766;28;20508;-77
2021/11/22 09:21:38;;;;;;;7.10;3.08;;;5.30;97.00;;;;;;5042160;28;20024;-76
2021/11/22 09:24:05;;;;;;;4.78;2.30;;;5.30;97.00;;;;;;5058614;28;20043;-77
2021/11/22 09:26:31;;;;;;;7.15;2.58;;;5.40;96.90;;;;;;5076397;28;20108;-78
2021/11/22 09:28:58;;;;;;;5.07;2.20;;;5.40;96.80;;;;;;5076505;28;20031;-77
2021/11/22 09:31:24;;;;;;;5.32;2.40;;;5.40;96.80;;;;;;5058184;28;20476;-77
2021/11/22 09:33:52;;;;;;;5.88;2.42;;;5.50;96.70;;;;;;5058496;28;20478;-77
2021/11/22 09:36:20;;;;;;;6.95;2.97;;;5.50;96.70;;;;;;5057272;28;20028;-77
2021/11/22 09:38:45;;;;;;;8.85;2.92;;;5.50;96.80;;;;;;5075864;28;20033;-76
2021/11/22 09:41:11;;;;;;;7.05;2.47;;;5.60;96.80;;;;;;5076348;28;20377;-77
2021/11/22 09:43:41;;;;;;;6.75;2.20;;;5.60;96.90;;;;;;5058437;28;20044;-76
2021/11/22 09:46:06;;;;;;;6.18;2.60;;;5.70;96.50;;;;;;5076293;28;20020;-77
2021/11/22 09:48:32;;;;;;;6.55;2.10;;;5.80;96.40;;;;;;5057943;28;20025;-77
2021/11/22 09:50:58;;;;;;;7.45;2.30;;;5.80;96.30;;;;;;5041305;28;20024;-77
2021/11/22 09:53:23;;;;;;;7.18;2.50;;;5.90;95.90;;;;;;5057854;28;20086;-77
2021/11/22 09:55:49;;;;;;;5.88;1.90;;;6.00;95.80;;;;;;5046612;28;20086;-77
2021/11/22 09:58:15;;;;;;;5.25;2.22;;;6.00;95.80;;;;;;5073994;28;20040;-77
2021/11/22 10:00:44;;;;;;;6.03;1.98;;;6.10;95.80;;;;;;5075700;28;20495;-76
2021/11/22 10:03:14;;;;;;;;;;;6.10;95.80;;;;;;5076389;28;20033;-77
2021/11/22 10:05:42;;;;;;;2.90;1.50;;;6.20;95.30;;;;;;5074900;28;19995;-77
2021/11/22 10:08:09;;;;;;;3.67;1.75;;;6.20;95.10;;;;;;5060366;28;20497;-77
2021/11/22 10:10:41;;;;;;;13.00;4.50;;;6.30;95.20;;;;;;5055696;28;20025;-77
2021/11/22 10:13:20;;;;;;;5.45;2.33;;;6.40;95.10;;;;;;5054608;28;20021;-77
2021/11/22 10:15:46;;;;;;;4.38;2.53;;;6.40;94.90;;;;;;5055722;28;20025;-77
2021/11/22 10:18:23;;;;;;;5.15;1.65;;;6.40;94.40;;;;;;5065986;28;20040;-77
2021/11/22 10:20:52;;;;;;;3.75;2.63;;;6.40;94.30;;;;;;5075069;28;20039;-76
2021/11/22 10:23:26;;;;;;;4.15;1.75;;;6.40;94.10;;;;;;5074927;28;20032;-77
2021/11/22 10:25:54;;;;;;;3.58;1.52;;;6.50;94.20;;;;;;5060993;28;20848;-77
2021/11/22 10:28:29;;;;;;;5.00;1.80;;;6.60;94.10;;;;;;5048861;28;20064;-76
2021/11/22 10:31:02;;;;;;;5.70;1.75;;;6.60;94.10;;;;;;5072508;28;20016;-77
2021/11/22 10:33:34;;;;;;;4.13;1.65;;;6.60;94.10;;;;;;5071962;28;20027;-77
2021/11/22 10:36:03;;;;;;;4.75;1.42;;;6.70;93.90;;;;;;5072331;28;20544;-77
2021/11/22 10:38:43;;;;;;;6.15;1.45;;;6.70;93.20;;;;;;5072934;28;20614;-77
2021/11/22 10:41:24;;;;;;;2.75;1.40;;;6.70;93.00;;;;;;5074133;28;20028;-76
2021/11/22 10:43:59;;;;;;;4.22;1.63;;;6.80;93.20;;;;;;5073553;28;20361;-77
2021/11/22 10:46:29;;;;;;;4.30;1.48;;;6.80;93.20;;;;;;5074226;28;20036;-77
2021/11/22 10:49:16;;;;;;;5.05;1.48;;;6.90;93.20;;;;;;5072007;28;20016;-76
2021/11/22 10:51:46;;;;;;;5.65;1.60;;;7.00;93.10;;;;;;5073166;28;20020;-76
2021/11/22 10:54:17;;;;;;;5.07;1.50;;;7.00;92.90;;;;;;5072376;28;20044;-76
2021/11/22 10:56:45;;;;;;;3.55;1.23;;;7.00;92.30;;;;;;5073564;28;20037;-76
2021/11/22 10:59:12;;;;;;;2.90;1.58;;;7.10;92.40;;;;;;5056322;28;20032;-76
2021/11/22 11:01:49;;;;;;;6.18;1.45;;;7.00;92.30;;;;;;5073707;28;20082;-76
2021/11/22 11:04:27;;;;;;;3.78;1.50;;;7.10;92.40;;;;;;5073444;28;20081;-76
2021/11/22 11:06:55;;;;;;;5.85;1.40;;;7.10;92.10;;;;;;5073299;28;20123;-77
2021/11/22 11:09:26;;;;;;;4.20;1.30;;;7.20;91.90;;;;;;5073742;28;20168;-76
2021/11/22 11:12:11;;;;;;;4.15;1.23;;;7.20;92.20;;;;;;5073041;28;20079;-77
2021/11/22 11:14:43;;;;;;;3.90;1.40;;;7.20;91.50;;;;;;5068628;28;20052;-77
2021/11/22 11:17:18;;;;;;;4.45;1.20;;;7.30;91.60;;;;;;5056101;28;20058;-77
2021/11/22 11:19:46;;;;;;;3.03;1.05;;;7.30;91.60;;;;;;5073474;28;20036;-77
2021/11/22 11:22:13;;;;;;;9.55;2.47;;;7.30;91.30;;;;;;5068906;28;20456;-77
2021/11/22 11:24:39;;;;;;;2.10;1.30;;;7.30;91.10;;;;;;5054707;28;20374;-77
2021/11/22 11:27:06;;;;;;;4.55;2.05;;;7.40;90.80;;;;;;5054350;28;20393;-77
2021/11/22 11:29:32;;;;;;;5.90;1.90;;;7.50;90.70;;;;;;5038087;28;20040;-77
2021/11/22 11:31:57;;;;;;;9.95;3.83;;;7.90;90.00;;;;;;5049337;28;20031;-77
2021/11/22 11:34:34;;;;;;;3.22;1.25;;;8.40;87.90;;;;;;5054164;28;20393;-77
2021/11/22 11:37:31;;;;;;;5.82;1.70;;;9.00;84.10;;;;;;5068376;28;20028;-77
2021/11/22 11:40:08;;;;;;;5.28;1.23;;;9.60;81.80;;;;;;5072671;28;20385;-77
2021/11/22 11:43:11;;;;;;;3.03;1.52;;;10.20;79.10;;;;;;5062010;28;20044;-77
2021/11/22 11:45:47;;;;;;;3.33;1.20;;;10.50;77.70;;;;;;5053112;28;20611;-77
2021/11/22 11:48:31;;;;;;;3.45;1.30;;;10.70;75.70;;;;;;5048804;28;20086;-77
2021/11/22 11:51:11;;;;;;;4.60;2.03;;;10.90;73.80;;;;;;5070863;28;20024;-77
2021/11/22 11:53:38;;;;;;;5.25;2.05;;;11.20;73.80;;;;;;5043719;28;20115;-77
2021/11/22 11:56:12;;;;;;;4.43;2.55;;;11.20;72.10;;;;;;5060180;28;20477;-77
2021/11/22 11:58:39;;;;;;;5.18;2.88;;;11.30;71.70;;;;;;5068837;28;20564;-77
2021/11/22 12:01:13;;;;;;;1.67;0.90;;;11.50;71.90;;;;;;5069066;28;20056;-77
2021/11/22 12:04:00;;;;;;;3.55;1.10;;;11.40;70.20;;;;;;5070267;28;20063;-77
2021/11/22 12:06:44;;;;;;;3.53;1.30;;;11.20;68.30;;;;;;5071302;28;20059;-77
2021/11/22 12:09:31;;;;;;;5.22;1.42;;;10.80;69.70;;;;;;5067508;28;20027;-77
2021/11/22 12:12:18;;;;;;;3.75;0.80;;;10.50;71.50;;;;;;5071637;28;20158;-77
2021/11/22 12:15:02;;;;;;;2.40;0.73;;;10.30;72.40;;;;;;5056764;28;20123;-77
2021/11/22 12:17:33;;;;;;;2.53;0.93;;;10.20;72.00;;;;;;5083856;28;20020;-77
2021/11/22 12:20:05;;;;;;;3.28;0.80;;;9.90;73.40;;;;;;5069070;28;20056;-76
2021/11/22 12:22:56;;;;;;;3.47;0.80;;;9.80;72.20;;;;;;5061743;28;20056;-77
2021/11/22 12:25:43;;;;;;;2.05;0.80;;;9.80;73.70;;;;;;5044847;28;20061;-77
2021/11/22 12:28:34;;;;;;;1.38;0.70;;;9.60;75.00;;;;;;5068315;28;20042;-77
2021/11/22 12:31:06;;;;;;;1.58;0.70;;;9.50;74.20;;;;;;5071033;28;20008;-77
2021/11/22 12:33:34;;;;;;;2.60;0.60;;;9.30;74.40;;;;;;5070719;28;20459;-80
2021/11/22 12:36:06;;;;;;;2.20;0.75;;;9.40;74.90;;;;;;5072750;28;20391;-81
2021/11/22 12:38:45;;;;;;;4.10;0.77;;;9.70;73.80;;;;;;5071410;28;20028;-81
2021/11/22 12:41:21;;;;;;;4.22;0.80;;;10.10;72.00;;;;;;5051942;28;20025;-81
2021/11/22 12:43:48;;;;;;;3.08;0.70;;;10.50;70.40;;;;;;5071317;28;20064;-81
2021/11/22 12:46:36;;;;;;;3.28;0.90;;;10.80;69.20;;;;;;5052826;28;20043;-81
2021/11/22 12:49:29;;;;;;;1.67;0.50;;;10.80;69.00;;;;;;5049371;28;20098;-81
2021/11/22 12:52:09;;;;;;;3.00;0.90;;;10.90;69.10;;;;;;5051910;28;20052;-81
2021/11/22 12:54:50;;;;;;;2.60;0.70;;;11.20;68.30;;;;;;5060388;28;20025;-81
2021/11/22 12:57:21;;;;;;;1.95;0.90;;;11.50;68.00;;;;;;5061242;28;20036;-81